Alleene, Arkansas
Current Conditions -  °F | °C
As of 12:09 AM on Sunday 23 Nov 2014 (Local Time) from KDEQ Reporting Station
Overcast Overcast  
Wind Chill: 60°   Ceiling: 800
Heat Index: 60°   Visibility: 8mi
Dew Point: 58°   Wind: 18mph
Humidity: 93%   Direction: 120°ESE
Pressure: 29.69"   Gusts: 31mph
Location:  33.77°N, 94.26°W
Report Text: KDEQ 230609Z AUTO 12016G27KT 8SM OVC008 16/14 A2969 RMK AO2 PK WND 12027/0609 CIG 006V012 PRESFR T01560144
Loading
Personal Weather Stations






























Interactive Weather Map New forecast layout! Learn more

10-Day Weather Forecast

Advertisements
Track Severe Weather on mobile